| time (UTC) | temp C | wind direction | speed KPH | gust KPH | rain 1hr cm | rain 24hr cm | rain mn cm | humidity % | barometer mb |
| 20260906005826 | 11 | 271 | 14.5 | 25.7 | 0.00 | 0.00 | 0.00 | 100 | 947.1 |
| 20260906005426 | 11 | 272 | 17.7 | 30.6 | 0.00 | 0.00 | 0.00 | 100 | 947.1 |
| 20260906005026 | 11 | 272 | 14.5 | 20.9 | 0.00 | 0.00 | 0.00 | 100 | 947.1 |
| 20260906004623 | 11 | 271 | 17.7 | 25.7 | 0.00 | 0.00 | 0.00 | 100 | 947.1 |
| 20260906004223 | 11 | 270 | 19.3 | 25.7 | 0.00 | 0.00 | 0.00 | 100 | 947.1 |
| 20260906003823 | 12 | 273 | 16.1 | 22.5 | 0.00 | 0.00 | 0.00 | 100 | 947.2 |
| 20260906003624 | 12 | 283 | 12.9 | 19.3 | 0.00 | 0.00 | 0.00 | ||
| 20260906003423 | 12 | 283 | 12.9 | 19.3 | 0.00 | 0.00 | 0.00 | 100 | 947.3 |
| 20260906003024 | 12 | 281 | 12.9 | 19.3 | 0.00 | 0.00 | 0.00 | ||
| 20260906002620 | 12 | 273 | 19.3 | 29.0 | 0.00 | 0.00 | 0.00 | 100 | 947.2 |
| 20260906002220 | 12 | 274 | 19.3 | 27.4 | 0.00 | 0.00 | 0.00 | 100 | 947.2 |
| 20260906001820 | 12 | 271 | 14.5 | 24.1 | 0.00 | 0.00 | 0.00 | 100 | 947.2 |
| 20260906001420 | 12 | 269 | 11.3 | 20.9 | 0.00 | 0.00 | 0.00 | 100 | 947.2 |
| 20260906001020 | 13 | 277 | 9.7 | 16.1 | 0.00 | 0.00 | 0.00 | 100 | 947.2 |
| 20260906000617 | 13 | 274 | 14.5 | 20.9 | 0.00 | 0.00 | 0.00 | 100 | 947.2 |
| 20260906000219 | 13 | 273 | 16.1 | 27.4 | 0.00 | 0.00 | 0.00 | 100 | 947.1 |
| 20260905235817 | 13 | 276 | 11.3 | 19.3 | 0.00 | 0.00 | 0.00 | 100 | 947.1 |
| 20260905235417 | 13 | 273 | 19.3 | 30.6 | 0.00 | 0.00 | 0.00 | 100 | 947.1 |
| 20260905235017 | 13 | 276 | 9.7 | 16.1 | 0.00 | 0.00 | 0.00 | 100 | 947.2 |
| 20260905234614 | 13 | 275 | 14.5 | 22.5 | 0.00 | 0.00 | 0.00 | 100 | 947.1 |
| 20260905234214 | 13 | 278 | 16.1 | 25.7 | 0.00 | 0.00 | 0.00 | 100 | 947.0 |
| 20260905233815 | 13 | 276 | 17.7 | 32.2 | 0.00 | 0.00 | 0.00 | 100 | 947.0 |
| 20260905233415 | 13 | 286 | 14.5 | 33.8 | 0.00 | 0.00 | 0.00 | 100 | 946.9 |
| 20260905233014 | 13 | 286 | 17.7 | 38.6 | 0.00 | 0.00 | 0.00 | 100 | 946.9 |
| 20260905232611 | 13 | 291 | 16.1 | 32.2 | 0.00 | 0.00 | 0.00 | 100 | 946.8 |
| 20260905232208 | 13 | 273 | 12.9 | 25.7 | 0.00 | 0.00 | 0.00 | 100 | 946.8 |
| 20260905231808 | 13 | 280 | 12.9 | 19.3 | 0.00 | 0.00 | 0.00 | 100 | 946.7 |
| 20260905231357 | 13 | 275 | 12.9 | 22.5 | 0.00 | 0.00 | 0.00 | 100 | 946.7 |
| 20260905230957 | 13 | 274 | 12.9 | 17.7 | 0.00 | 0.00 | 0.00 | 100 | 946.6 |
| 20260905230554 | 13 | 279 | 11.3 | 20.9 | 0.00 | 0.00 | 0.00 | 100 | 946.6 |
| 20260905230154 | 13 | 279 | 12.9 | 24.1 | 0.00 | 0.00 | 0.00 | 100 | 946.6 |
| 20260905225754 | 13 | 280 | 12.9 | 20.9 | 0.00 | 0.00 | 0.00 | 100 | 946.7 |
| 20260905225354 | 13 | 275 | 16.1 | 24.1 | 0.00 | 0.00 | 0.00 | 100 | 946.7 |
| 20260905224954 | 13 | 277 | 14.5 | 22.5 | 0.00 | 0.00 | 0.00 | 100 | 946.7 |
| 20260905224551 | 13 | 273 | 16.1 | 24.1 | 0.00 | 0.00 | 0.00 | 100 | 946.6 |
| 20260905224151 | 13 | 276 | 16.1 | 20.9 | 0.00 | 0.00 | 0.00 | 100 | 946.5 |
| 20260905223751 | 13 | 275 | 14.5 | 20.9 | 0.00 | 0.00 | 0.00 | 100 | 946.6 |
| 20260905223351 | 13 | 279 | 16.1 | 24.1 | 0.00 | 0.00 | 0.00 | 100 | 946.5 |
| 20260905222951 | 13 | 277 | 14.5 | 20.9 | 0.00 | 0.00 | 0.00 | 100 | 946.5 |
| 20260905222548 | 13 | 268 | 11.3 | 16.1 | 0.00 | 0.00 | 0.00 | 100 | 946.5 |
| 20260905222148 | 13 | 276 | 16.1 | 22.5 | 0.00 | 0.00 | 0.00 | 100 | 946.5 |
| 20260905221748 | 14 | 276 | 12.9 | 16.1 | 0.00 | 0.00 | 0.00 | 100 | 946.5 |
| 20260905221348 | 14 | 278 | 14.5 | 19.3 | 0.00 | 0.00 | 0.00 | 100 | 946.5 |
| 20260905220948 | 14 | 279 | 12.9 | 17.7 | 0.00 | 0.00 | 0.00 | 100 | 946.4 |
| 20260905220546 | 13 | 282 | 14.5 | 19.3 | 0.00 | 0.00 | 0.00 | 100 | 946.4 |
| 20260905220146 | 13 | 282 | 14.5 | 17.7 | 0.00 | 0.00 | 0.00 | 100 | 946.4 |
| 20260905215746 | 13 | 279 | 11.3 | 14.5 | 0.00 | 0.00 | 0.00 | 100 | 946.4 |
| 20260905214946 | 13 | 280 | 11.3 | 16.1 | 0.00 | 0.00 | 0.00 | 100 | 946.4 |
| 20260905214543 | 13 | 280 | 12.9 | 16.1 | 0.00 | 0.00 | 0.00 | 100 | 946.4 |
| 20260905214142 | 13 | 281 | 12.9 | 16.1 | 0.00 | 0.00 | 0.00 | 100 | 946.4 |
| 20260905213742 | 13 | 280 | 12.9 | 16.1 | 0.00 | 0.00 | 0.00 | 100 | 946.4 |
| 20260905213342 | 14 | 278 | 11.3 | 14.5 | 0.00 | 0.00 | 0.00 | 100 | 946.4 |
| 20260905212942 | 14 | 279 | 12.9 | 16.1 | 0.00 | 0.00 | 0.00 | 100 | 946.4 |
| 20260905212539 | 14 | 276 | 11.3 | 14.5 | 0.00 | 0.00 | 0.00 | 100 | 946.3 |
| 20260905212140 | 14 | 276 | 11.3 | 12.9 | 0.00 | 0.00 | 0.00 | 100 | 946.4 |
| 20260905211736 | 14 | 273 | 11.3 | 14.5 | 0.00 | 0.00 | 0.00 | 100 | 946.4 |
| 20260905211336 | 14 | 270 | 11.3 | 14.5 | 0.00 | 0.00 | 0.00 | 100 | 946.4 |
| 20260905210936 | 14 | 272 | 11.3 | 16.1 | 0.00 | 0.00 | 0.00 | 100 | 946.4 |
| 20260905210533 | 14 | 271 | 11.3 | 14.5 | 0.00 | 0.00 | 0.00 | 100 | 946.4 |
| 20260905210133 | 14 | 274 | 12.9 | 17.7 | 0.00 | 0.00 | 0.00 | 100 | 946.4 |
| 20260905205733 | 14 | 276 | 14.5 | 17.7 | 0.00 | 0.00 | 0.00 | 100 | 946.4 |
| 20260905205334 | 14 | 273 | 11.3 | 16.1 | 0.00 | 0.00 | 0.00 | 100 | 946.3 |
| 20260905204934 | 14 | 275 | 11.3 | 12.9 | 0.00 | 0.00 | 0.00 | 100 | 946.3 |
| 20260905204531 | 15 | 277 | 12.9 | 14.5 | 0.00 | 0.00 | 0.00 | 100 | 946.3 |
| 20260905204131 | 15 | 280 | 11.3 | 16.1 | 0.00 | 0.00 | 0.00 | 100 | 946.4 |
| 20260905203722 | 15 | 278 | 12.9 | 16.1 | 0.00 | 0.00 | 0.00 | 100 | 946.3 |
| 20260905203322 | 15 | 279 | 12.9 | 17.7 | 0.00 | 0.00 | 0.00 | 100 | 946.3 |
| 20260905202922 | 15 | 278 | 11.3 | 14.5 | 0.00 | 0.00 | 0.00 | 100 | 946.3 |
| 20260905202519 | 15 | 278 | 9.7 | 14.5 | 0.00 | 0.00 | 0.00 | 100 | 946.2 |
| 20260905202119 | 15 | 279 | 11.3 | 14.5 | 0.00 | 0.00 | 0.00 | 100 | 946.3 |
| 20260905201719 | 15 | 280 | 11.3 | 14.5 | 0.00 | 0.00 | 0.00 | 100 | 946.3 |
| 20260905201320 | 15 | 282 | 11.3 | 14.5 | 0.00 | 0.00 | 0.00 | 100 | 946.3 |
| 20260905200920 | 15 | 283 | 12.9 | 16.1 | 0.00 | 0.00 | 0.00 | 100 | 946.4 |
| 20260905200517 | 15 | 283 | 11.3 | 12.9 | 0.00 | 0.00 | 0.00 | 100 | 946.3 |
| 20260905200117 | 15 | 282 | 11.3 | 12.9 | 0.00 | 0.00 | 0.00 | 100 | 946.3 |
| 20260905195717 | 15 | 282 | 11.3 | 14.5 | 0.00 | 0.00 | 0.00 | 100 | 946.2 |
| 20260905195317 | 15 | 283 | 8.0 | 12.9 | 0.00 | 0.00 | 0.00 | 100 | 946.1 |
| 20260905194917 | 15 | 278 | 6.4 | 8.0 | 0.00 | 0.00 | 0.00 | 100 | 946.0 |
| 20260905194514 | 15 | 281 | 8.0 | 11.3 | 0.00 | 0.00 | 0.00 | 100 | 946.1 |
| 20260905194114 | 15 | 281 | 8.0 | 11.3 | 0.00 | 0.00 | 0.00 | 100 | 946.0 |
| 20260905193714 | 15 | 278 | 9.7 | 12.9 | 0.00 | 0.00 | 0.00 | 100 | 946.0 |
| 20260905193314 | 15 | 280 | 11.3 | 14.5 | 0.00 | 0.00 | 0.00 | 100 | 946.0 |
| 20260905192914 | 15 | 277 | 11.3 | 12.9 | 0.00 | 0.00 | 0.00 | 100 | 946.0 |
| 20260905192511 | 15 | 278 | 9.7 | 11.3 | 0.00 | 0.00 | 0.00 | 100 | 945.9 |
| 20260905192111 | 15 | 270 | 6.4 | 8.0 | 0.00 | 0.00 | 0.00 | 100 | 945.9 |
| 20260905191711 | 15 | 276 | 6.4 | 8.0 | 0.00 | 0.00 | 0.00 | 100 | 946.0 |
| 20260905191308 | 15 | 278 | 9.7 | 11.3 | 0.00 | 0.00 | 0.00 | 100 | 946.0 |
| 20260905190908 | 15 | 283 | 9.7 | 11.3 | 0.00 | 0.00 | 0.00 | 100 | 946.0 |
| 20260905190505 | 15 | 283 | 9.7 | 11.3 | 0.00 | 0.00 | 0.00 | 100 | 945.9 |
| 20260905190105 | 15 | 283 | 9.7 | 11.3 | 0.00 | 0.00 | 0.00 | 100 | 945.8 |
| 20260905185705 | 15 | 283 | 9.7 | 12.9 | 0.00 | 0.00 | 0.00 | 100 | 945.9 |
| 20260905185306 | 16 | 285 | 8.0 | 11.3 | 0.00 | 0.00 | 0.00 | 100 | 945.9 |
| 20260905184905 | 16 | 287 | 6.4 | 12.9 | 0.00 | 0.00 | 0.00 | 100 | 945.9 |
| 20260905184502 | 16 | 288 | 9.7 | 16.1 | 0.00 | 0.00 | 0.00 | 100 | 946.0 |
| 20260905184102 | 16 | 287 | 9.7 | 16.1 | 0.00 | 0.00 | 0.00 | 100 | 945.9 |
| 20260905183702 | 16 | 297 | 9.7 | 19.3 | 0.00 | 0.00 | 0.00 | 100 | 945.9 |
| 20260905183302 | 16 | 304 | 9.7 | 14.5 | 0.00 | 0.00 | 0.00 | 100 | 945.9 |
| 20260905182902 | 16 | 308 | 11.3 | 19.3 | 0.00 | 0.00 | 0.00 | 100 | 945.9 |
| 20260905182459 | 16 | 305 | 8.0 | 12.9 | 0.00 | 0.00 | 0.00 | 100 | 945.9 |
| 20260905182059 | 16 | 308 | 9.7 | 17.7 | 0.00 | 0.00 | 0.00 | 100 | 945.8 |
| 20260905181659 | 16 | 310 | 8.0 | 14.5 | 0.00 | 0.00 | 0.00 | 100 | 945.8 |
| 20260905181259 | 16 | 307 | 12.9 | 19.3 | 0.00 | 0.00 | 0.00 | 100 | 945.8 |
| 20260905180900 | 16 | 307 | 9.7 | 14.5 | 0.00 | 0.00 | 0.00 | 100 | 945.8 |
| 20260905180445 | 16 | 311 | 9.7 | 20.9 | 0.00 | 0.00 | 0.00 | 100 | 945.8 |
| 20260905180045 | 16 | 302 | 12.9 | 20.9 | 0.00 | 0.00 | 0.00 | 100 | 945.7 |
| 20260905175245 | 16 | 309 | 12.9 | 22.5 | 0.00 | 0.00 | 0.00 | 100 | 945.6 |
| 20260905174845 | 16 | 305 | 12.9 | 16.1 | 0.00 | 0.00 | 0.00 | 100 | 945.6 |
| 20260905174443 | 16 | 302 | 11.3 | 16.1 | 0.00 | 0.00 | 0.00 | 100 | 945.5 |
| 20260905174043 | 16 | 308 | 14.5 | 20.9 | 0.00 | 0.00 | 0.00 | 100 | 945.5 |
| 20260905173643 | 16 | 307 | 14.5 | 19.3 | 0.00 | 0.00 | 0.00 | 100 | 945.4 |
| 20260905173243 | 16 | 308 | 12.9 | 20.9 | 0.00 | 0.00 | 0.00 | 100 | 945.3 |
| 20260905172843 | 16 | 309 | 12.9 | 22.5 | 0.00 | 0.00 | 0.00 | 100 | 945.4 |
| 20260905172440 | 16 | 305 | 16.1 | 22.5 | 0.00 | 0.00 | 0.00 | 100 | 945.3 |
| 20260905172040 | 16 | 306 | 12.9 | 22.5 | 0.00 | 0.00 | 0.00 | 100 | 945.2 |
| 20260905171640 | 16 | 293 | 12.9 | 24.1 | 0.00 | 0.00 | 0.00 | 100 | 945.2 |
| 20260905171240 | 16 | 296 | 12.9 | 27.4 | 0.00 | 0.00 | 0.00 | 100 | 945.2 |
| 20260905170837 | 17 | 304 | 9.7 | 12.9 | 0.00 | 0.00 | 0.00 | 100 | 945.2 |
| 20260905170434 | 17 | 307 | 9.7 | 16.1 | 0.00 | 0.00 | 0.00 | 100 | 945.2 |
| 20260905170034 | 17 | 295 | 9.7 | 16.1 | 0.00 | 0.00 | 0.00 | 100 | 945.2 |
| 20260905165634 | 17 | 294 | 8.0 | 16.1 | 0.00 | 0.00 | 0.00 | 100 | 945.1 |
| 20260905165234 | 17 | 302 | 4.8 | 8.0 | 0.00 | 0.00 | 0.00 | 100 | 945.1 |
| 20260905164834 | 17 | 289 | 8.0 | 14.5 | 0.00 | 0.00 | 0.00 | 100 | 945.1 |
| 20260905164431 | 18 | 286 | 8.0 | 14.5 | 0.00 | 0.00 | 0.00 | 100 | 945.1 |
| 20260905164031 | 18 | 282 | 11.3 | 14.5 | 0.00 | 0.00 | 0.00 | 100 | 945.0 |
| 20260905163631 | 18 | 284 | 11.3 | 17.7 | 0.00 | 0.00 | 0.00 | 100 | 944.9 |
| 20260905163231 | 18 | 284 | 8.0 | 12.9 | 0.00 | 0.00 | 0.00 | 100 | 944.9 |
| 20260905162831 | 18 | 278 | 11.3 | 16.1 | 0.00 | 0.00 | 0.00 | 100 | 944.9 |
| 20260905162428 | 18 | 287 | 9.7 | 16.1 | 0.00 | 0.00 | 0.00 | 100 | 944.9 |
| 20260905162028 | 18 | 287 | 9.7 | 14.5 | 0.00 | 0.00 | 0.00 | 100 | 944.8 |
| 20260905161628 | 18 | 288 | 9.7 | 16.1 | 0.00 | 0.00 | 0.00 | 100 | 944.9 |
| 20260905161228 | 18 | 285 | 9.7 | 16.1 | 0.00 | 0.00 | 0.00 | 100 | 944.8 |
| 20260905160828 | 18 | 285 | 11.3 | 12.9 | 0.00 | 0.00 | 0.00 | 100 | 944.8 |
| 20260905160425 | 18 | 285 | 11.3 | 16.1 | 0.00 | 0.00 | 0.00 | 100 | 944.7 |
| 20260905160025 | 18 | 281 | 8.0 | 14.5 | 0.00 | 0.00 | 0.00 | 100 | 944.7 |
| 20260905155625 | 19 | 279 | 8.0 | 14.5 | 0.00 | 0.00 | 0.00 | 100 | 944.7 |
| 20260905155225 | 20 | 286 | 12.9 | 17.7 | 0.00 | 0.00 | 0.00 | 100 | 944.6 |
| 20260905154825 | 20 | 282 | 12.9 | 24.1 | 0.00 | 0.00 | 0.00 | 100 | 944.6 |
| 20260905154422 | 20 | 282 | 16.1 | 24.1 | 0.00 | 0.00 | 0.00 | 100 | 944.6 |
| 20260905154022 | 20 | 282 | 12.9 | 20.9 | 0.00 | 0.00 | 0.00 | 100 | 944.6 |
| 20260905153622 | 20 | 282 | 12.9 | 19.3 | 0.00 | 0.00 | 0.00 | 100 | 944.6 |
| 20260905153222 | 21 | 282 | 17.7 | 25.7 | 0.00 | 0.00 | 0.00 | 100 | 944.6 |
| 20260905152813 | 21 | 276 | 12.9 | 22.5 | 0.00 | 0.00 | 0.00 | 100 | 944.6 |
| 20260905152410 | 21 | 280 | 17.7 | 24.1 | 0.00 | 0.00 | 0.00 | 100 | 944.6 |
| 20260905152010 | 21 | 281 | 17.7 | 33.8 | 0.00 | 0.00 | 0.00 | 100 | 944.7 |
| 20260905151211 | 21 | 278 | 16.1 | 29.0 | 0.00 | 0.00 | 0.00 | 100 | 944.7 |
| 20260905150811 | 22 | 285 | 22.5 | 29.0 | 0.00 | 0.00 | 0.00 | 100 | 944.7 |
| 20260905150404 | 22 | 284 | 14.5 | 20.9 | 0.00 | 0.00 | 0.00 | 100 | 944.7 |
| 20260905150004 | 22 | 279 | 9.7 | 19.3 | 0.00 | 0.00 | 0.00 | 100 | 944.8 |
| 20260905145604 | 22 | 280 | 14.5 | 27.4 | 0.00 | 0.00 | 0.00 | 100 | 944.7 |
| 20260905145204 | 22 | 276 | 8.0 | 16.1 | 0.00 | 0.00 | 0.00 | 100 | 944.7 |
| 20260905144804 | 22 | 279 | 12.9 | 22.5 | 0.00 | 0.00 | 0.00 | 100 | 944.8 |
| 20260905144401 | 21 | 282 | 11.3 | 16.1 | 0.00 | 0.00 | 0.00 | 100 | 944.8 |
| 20260905144001 | 21 | 279 | 12.9 | 16.1 | 0.00 | 0.00 | 0.00 | 100 | 944.7 |
| 20260905143601 | 20 | 291 | 12.9 | 22.5 | 0.00 | 0.00 | 0.00 | 100 | 944.7 |
| 20260905143201 | 20 | 288 | 8.0 | 22.5 | 0.00 | 0.00 | 0.00 | 100 | 944.8 |
| 20260905142801 | 20 | 301 | 8.0 | 16.1 | 0.00 | 0.00 | 0.00 | 100 | 944.8 |
| 20260905142358 | 21 | 292 | 8.0 | 12.9 | 0.00 | 0.00 | 0.00 | 100 | 944.8 |
| 20260905141958 | 21 | 280 | 6.4 | 16.1 | 0.00 | 0.00 | 0.00 | 100 | 944.8 |
| 20260905141559 | 20 | 296 | 6.4 | 14.5 | 0.00 | 0.00 | 0.00 | 100 | 944.8 |
| 20260905141158 | 20 | 294 | 4.8 | 9.7 | 0.00 | 0.00 | 0.00 | 100 | 944.7 |
| 20260905140759 | 20 | 296 | 8.0 | 14.5 | 0.00 | 0.00 | 0.00 | 100 | 944.7 |
| 20260905140356 | 21 | 296 | 8.0 | 19.3 | 0.00 | 0.00 | 0.00 | 100 | 944.7 |
| 20260905135956 | 21 | 287 | 8.0 | 12.9 | 0.00 | 0.00 | 0.00 | 100 | 944.7 |
| 20260905135556 | 22 | 287 | 9.7 | 22.5 | 0.00 | 0.00 | 0.00 | 100 | 944.7 |
| 20260905135156 | 22 | 280 | 16.1 | 25.7 | 0.00 | 0.00 | 0.00 | 100 | 944.7 |
| 20260905134756 | 22 | 287 | 9.7 | 16.1 | 0.00 | 0.00 | 0.00 | 100 | 944.6 |
| 20260905134353 | 22 | 273 | 11.3 | 24.1 | 0.00 | 0.00 | 0.00 | 100 | 944.6 |
| 20260905133953 | 22 | 283 | 4.8 | 14.5 | 0.00 | 0.00 | 0.00 | 100 | 944.6 |
| 20260905133553 | 21 | 279 | 12.9 | 22.5 | 0.00 | 0.00 | 0.00 | 100 | 944.7 |
| 20260905133153 | 21 | 285 | 12.9 | 25.7 | 0.00 | 0.00 | 0.00 | 100 | 944.7 |
| 20260905132753 | 21 | 281 | 12.9 | 22.5 | 0.00 | 0.00 | 0.00 | 100 | 944.7 |
| 20260905132350 | 21 | 282 | 20.9 | 33.8 | 0.00 | 0.00 | 0.00 | 100 | 944.7 |
| 20260905131950 | 20 | 282 | 19.3 | 30.6 | 0.00 | 0.00 | 0.00 | 100 | 944.6 |
| 20260905131550 | 20 | 276 | 20.9 | 27.4 | 0.00 | 0.00 | 0.00 | 100 | 944.6 |
| 20260905131150 | 18 | 272 | 14.5 | 24.1 | 0.00 | 0.00 | 0.00 | 100 | 944.7 |
| 20260905130750 | 19 | 276 | 16.1 | 24.1 | 0.00 | 0.00 | 0.00 | 100 | 944.7 |
| 20260905130347 | 20 | 272 | 20.9 | 29.0 | 0.00 | 0.00 | 0.00 | 100 | 944.6 |
| 20260905125944 | 20 | 279 | 24.1 | 35.4 | 0.00 | 0.00 | 0.00 | 100 | 944.7 |
| 20260905125544 | 20 | 273 | 22.5 | 37.0 | 0.00 | 0.00 | 0.00 | 100 | 944.7 |
| 20260905125132 | 20 | 281 | 20.9 | 30.6 | 0.00 | 0.00 | 0.00 | 100 | 944.7 |
| 20260905124732 | 21 | 280 | 12.9 | 20.9 | 0.00 | 0.00 | 0.00 | 100 | 944.7 |
| 20260905124329 | 21 | 287 | 9.7 | 17.7 | 0.00 | 0.00 | 0.00 | 100 | 944.7 |
| 20260905123929 | 21 | 270 | 19.3 | 30.6 | 0.00 | 0.00 | 0.00 | 100 | 944.7 |
| 20260905123530 | 21 | 276 | 19.3 | 33.8 | 0.00 | 0.00 | 0.00 | 100 | 944.7 |
| 20260905123130 | 20 | 290 | 8.0 | 16.1 | 0.00 | 0.00 | 0.00 | 100 | 944.7 |
| 20260905122730 | 20 | 285 | 9.7 | 19.3 | 0.00 | 0.00 | 0.00 | 100 | 944.8 |
| 20260905122327 | 19 | 296 | 8.0 | 20.9 | 0.00 | 0.00 | 0.00 | 100 | 944.8 |
| 20260905121927 | 19 | 297 | 6.4 | 12.9 | 0.00 | 0.00 | 0.00 | 100 | 944.9 |
| 20260905121527 | 19 | 295 | 3.2 | 8.0 | 0.00 | 0.00 | 0.00 | 100 | 944.9 |
| 20260905121127 | 20 | 277 | 6.4 | 9.7 | 0.00 | 0.00 | 0.00 | 100 | 944.9 |
| 20260905120727 | 20 | 275 | 12.9 | 24.1 | 0.00 | 0.00 | 0.00 | 100 | 944.9 |
| 20260905120324 | 20 | 279 | 11.3 | 17.7 | 0.00 | 0.00 | 0.00 | 100 | 944.9 |
| 20260905115924 | 20 | 276 | 16.1 | 24.1 | 0.00 | 0.00 | 0.00 | 100 | 944.8 |
| 20260905115524 | 20 | 275 | 17.7 | 29.0 | 0.00 | 0.00 | 0.00 | 100 | 944.9 |
| 20260905115124 | 19 | 276 | 14.5 | 22.5 | 0.00 | 0.00 | 0.00 | 100 | 944.9 |
| 20260905114724 | 18 | 292 | 6.4 | 14.5 | 0.00 | 0.00 | 0.00 | 100 | 945.0 |
| 20260905114321 | 17 | 287 | 6.4 | 12.9 | 0.00 | 0.00 | 0.00 | 100 | 945.1 |
| 20260905113921 | 17 | 279 | 8.0 | 14.5 | 0.00 | 0.00 | 0.00 | 100 | 945.2 |
| 20260905113521 | 16 | 278 | 12.9 | 17.7 | 0.00 | 0.00 | 0.00 | 100 | 945.2 |
| 20260905112721 | 17 | 279 | 20.9 | 30.6 | 0.00 | 0.00 | 0.00 | 100 | 945.2 |
| 20260905112319 | 17 | 266 | 17.7 | 22.5 | 0.00 | 0.00 | 0.00 | 100 | 945.2 |
| 20260905111918 | 17 | 274 | 16.1 | 22.5 | 0.00 | 0.00 | 0.00 | 100 | 945.2 |
| 20260905111518 | 17 | 272 | 22.5 | 32.2 | 0.00 | 0.00 | 0.00 | 100 | 945.2 |
| 20260905111118 | 17 | 274 | 20.9 | 32.2 | 0.00 | 0.00 | 0.00 | 100 | 945.2 |
| 20260905110718 | 16 | 270 | 17.7 | 29.0 | 0.00 | 0.00 | 0.00 | 100 | 945.2 |
| 20260905110315 | 16 | 254 | 19.3 | 24.1 | 0.00 | 0.00 | 0.00 | 100 | 945.1 |
| 20260905105916 | 15 | 261 | 19.3 | 29.0 | 0.00 | 0.00 | 0.00 | 100 | 945.1 |
| 20260905105512 | 14 | 258 | 17.7 | 22.5 | 0.00 | 0.00 | 0.00 | 100 | 945.1 |
| 20260905105112 | 13 | 263 | 17.7 | 22.5 | 0.00 | 0.00 | 0.00 | 100 | 945.0 |
| 20260905104712 | 13 | 257 | 16.1 | 20.9 | 0.00 | 0.00 | 0.00 | 100 | 945.1 |
| 20260905104309 | 13 | 267 | 14.5 | 19.3 | 0.00 | 0.00 | 0.00 | 100 | 945.3 |
| 20260905103909 | 13 | 261 | 14.5 | 20.9 | 0.00 | 0.00 | 0.00 | 100 | 945.3 |
| 20260905103509 | 13 | 263 | 12.9 | 19.3 | 0.00 | 0.00 | 0.00 | 100 | 945.2 |
| 20260905103109 | 13 | 269 | 12.9 | 17.7 | 0.00 | 0.00 | 0.00 | 100 | 945.2 |
| 20260905102709 | 13 | 261 | 9.7 | 14.5 | 0.00 | 0.00 | 0.00 | 100 | 945.1 |
| 20260905102306 | 13 | 264 | 14.5 | 19.3 | 0.00 | 0.00 | 0.00 | 100 | 945.1 |
| 20260905101907 | 13 | 268 | 12.9 | 14.5 | 0.00 | 0.00 | 0.00 | 100 | 945.2 |
| 20260905101458 | 13 | 252 | 16.1 | 22.5 | 0.00 | 0.00 | 0.00 | 100 | 945.0 |
| 20260905101058 | 13 | 255 | 9.7 | 12.9 | 0.00 | 0.00 | 0.00 | 100 | 944.8 |
| 20260905100658 | 13 | 245 | 14.5 | 19.3 | 0.00 | 0.00 | 0.00 | 100 | 944.7 |
| 20260905100255 | 13 | 249 | 9.7 | 14.5 | 0.00 | 0.00 | 0.00 | 100 | 944.7 |
| 20260905095855 | 13 | 251 | 11.3 | 14.5 | 0.00 | 0.00 | 0.00 | 100 | 944.9 |
| 20260905095455 | 13 | 266 | 12.9 | 20.9 | 0.00 | 0.00 | 0.00 | 100 | 945.0 |
| 20260905095055 | 13 | 268 | 14.5 | 20.9 | 0.00 | 0.00 | 0.00 | 100 | 945.1 |
| 20260905094655 | 14 | 268 | 16.1 | 22.5 | 0.00 | 0.00 | 0.00 | 100 | 944.9 |
| 20260905094252 | 14 | 256 | 11.3 | 17.7 | 0.00 | 0.00 | 0.00 | 100 | 944.9 |
| 20260905093852 | 14 | 252 | 17.7 | 24.1 | 0.00 | 0.00 | 0.00 | 100 | 944.9 |
| 20260905093452 | 14 | 252 | 16.1 | 22.5 | 0.00 | 0.00 | 0.00 | 100 | 944.9 |
| 20260905093053 | 14 | 255 | 16.1 | 22.5 | 0.00 | 0.00 | 0.00 | 100 | 944.7 |
| 20260905092653 | 13 | 250 | 12.9 | 19.3 | 0.00 | 0.00 | 0.00 | 100 | 944.7 |
| 20260905092250 | 13 | 258 | 12.9 | 20.9 | 0.00 | 0.00 | 0.00 | 100 | 944.7 |
| 20260905091850 | 13 | 256 | 16.1 | 19.3 | 0.00 | 0.00 | 0.00 | 100 | 944.8 |
| 20260905091450 | 13 | 268 | 14.5 | 19.3 | 0.00 | 0.00 | 0.00 | 100 | 944.8 |
| 20260905091049 | 13 | 278 | 14.5 | 22.5 | 0.00 | 0.00 | 0.00 | 100 | 944.6 |
| 20260905090649 | 14 | 268 | 17.7 | 27.4 | 0.00 | 0.00 | 0.00 | 100 | 944.7 |
| 20260905090246 | 14 | 272 | 19.3 | 29.0 | 0.00 | 0.00 | 0.00 | 100 | 944.9 |
| 20260905085846 | 14 | 278 | 12.9 | 19.3 | 0.00 | 0.00 | 0.00 | 100 | 944.7 |
| 20260905085447 | 13 | 284 | 12.9 | 25.7 | 0.00 | 0.00 | 0.00 | 100 | 944.6 |
| 20260905085043 | 13 | 288 | 8.0 | 17.7 | 0.00 | 0.00 | 0.00 | 100 | 944.5 |
| 20260905084643 | 13 | 278 | 11.3 | 22.5 | 0.00 | 0.00 | 0.00 | 100 | 944.7 |
| 20260905084241 | 13 | 282 | 9.7 | 14.5 | 0.00 | 0.00 | 0.00 | 100 | 944.9 |
| 20260905083841 | 13 | 286 | 16.1 | 29.0 | 0.00 | 0.00 | 0.00 | 100 | 944.8 |
| 20260905083441 | 13 | 288 | 14.5 | 25.7 | 0.00 | 0.00 | 0.00 | 100 | 944.6 |
| 20260905083041 | 13 | 283 | 14.5 | 20.9 | 0.00 | 0.00 | 0.00 | 100 | 944.6 |
| 20260905082641 | 13 | 289 | 12.9 | 25.7 | 0.00 | 0.00 | 0.00 | 100 | 944.5 |
| 20260905082238 | 14 | 292 | 14.5 | 24.1 | 0.00 | 0.00 | 0.00 | 100 | 944.6 |
| 20260905081838 | 14 | 286 | 19.3 | 35.4 | 0.00 | 0.00 | 0.00 | 100 | 944.4 |
| 20260905081438 | 15 | 287 | 9.7 | 19.3 | 0.00 | 0.00 | 0.00 | 100 | 944.3 |
| 20260905081038 | 15 | 285 | 12.9 | 20.9 | 0.00 | 0.00 | 0.00 | 100 | 944.4 |
| 20260905080638 | 15 | 285 | 12.9 | 20.9 | 0.00 | 0.00 | 0.00 | 100 | 944.3 |
| 20260905080235 | 15 | 281 | 12.9 | 32.2 | 0.00 | 0.00 | 0.00 | 100 | 944.3 |
| 20260905075835 | 15 | 278 | 9.7 | 19.3 | 0.00 | 0.00 | 0.00 | 100 | 944.1 |
| 20260905075435 | 15 | 287 | 8.0 | 17.7 | 0.00 | 0.00 | 0.00 | 100 | 944.0 |
| 20260905075035 | 15 | 293 | 6.4 | 11.3 | 0.00 | 0.00 | 0.00 | 100 | 943.7 |
| 20260905074635 | 15 | 285 | 16.1 | 27.4 | 0.00 | 0.00 | 0.00 | 100 | 943.6 |
| 20260905074221 | 15 | 281 | 19.3 | 32.2 | 0.00 | 0.00 | 0.00 | 100 | 943.9 |
| 20260905073821 | 15 | 278 | 14.5 | 32.2 | 0.00 | 0.00 | 0.00 | 100 | 943.8 |
| 20260905073021 | 15 | 279 | 14.5 | 20.9 | 0.00 | 0.00 | 0.00 | 100 | 943.7 |
| 20260905072621 | 15 | 288 | 20.9 | 35.4 | 0.00 | 0.00 | 0.00 | 100 | 943.7 |
| 20260905072218 | 15 | 283 | 14.5 | 25.7 | 0.00 | 0.00 | 0.00 | 100 | 943.6 |
| 20260905071818 | 15 | 283 | 12.9 | 29.0 | 0.00 | 0.00 | 0.00 | 100 | 943.6 |
| 20260905071418 | 15 | 280 | 12.9 | 25.7 | 0.00 | 0.00 | 0.00 | 100 | 943.7 |
| 20260905071018 | 15 | 288 | 14.5 | 25.7 | 0.00 | 0.00 | 0.00 | 100 | 943.7 |
| 20260905070619 | 15 | 286 | 12.9 | 24.1 | 0.00 | 0.00 | 0.00 | 100 | 943.8 |
| 20260905070216 | 15 | 279 | 14.5 | 25.7 | 0.00 | 0.00 | 0.00 | 100 | 943.7 |
| 20260905065815 | 15 | 287 | 14.5 | 20.9 | 0.00 | 0.00 | 0.00 | 100 | 943.7 |
| 20260905065415 | 15 | 279 | 16.1 | 29.0 | 0.00 | 0.00 | 0.00 | 100 | 943.7 |
| 20260905065015 | 15 | 269 | 19.3 | 29.0 | 0.00 | 0.00 | 0.00 | 100 | 943.6 |
| 20260905064612 | 15 | 276 | 19.3 | 30.6 | 0.00 | 0.00 | 0.00 | 100 | 943.5 |
| 20260905064209 | 15 | 278 | 14.5 | 27.4 | 0.00 | 0.00 | 0.00 | 100 | 943.3 |
| 20260905063809 | 15 | 287 | 8.0 | 16.1 | 0.00 | 0.00 | 0.00 | 100 | 943.3 |
| 20260905063410 | 15 | 285 | 12.9 | 29.0 | 0.00 | 0.00 | 0.00 | 100 | 943.2 |
| 20260905063009 | 15 | 287 | 9.7 | 14.5 | 0.00 | 0.00 | 0.00 | 100 | 943.2 |
| 20260905062609 | 15 | 285 | 12.9 | 30.6 | 0.00 | 0.00 | 0.00 | 100 | 943.3 |
| 20260905062206 | 15 | 283 | 4.8 | 9.7 | 0.00 | 0.00 | 0.00 | 100 | 943.2 |
| 20260905061806 | 15 | 280 | 8.0 | 12.9 | 0.00 | 0.00 | 0.00 | 100 | 943.1 |
| 20260905061406 | 15 | 260 | 8.0 | 12.9 | 0.00 | 0.00 | 0.00 | 100 | 943.1 |
| 20260905061007 | 15 | 270 | 8.0 | 9.7 | 0.00 | 0.00 | 0.00 | 100 | 943.2 |
| 20260905060607 | 15 | 243 | 11.3 | 14.5 | 0.00 | 0.00 | 0.00 | 100 | 943.1 |
| 20260905060204 | 15 | 240 | 12.9 | 16.1 | 0.00 | 0.00 | 0.00 | 100 | 942.9 |
| 20260905055804 | 15 | 244 | 11.3 | 12.9 | 0.00 | 0.00 | 0.00 | 100 | 942.8 |
| 20260905055404 | 15 | 241 | 9.7 | 12.9 | 0.00 | 0.00 | 0.00 | 100 | 942.7 |
| 20260905055004 | 15 | 239 | 11.3 | 14.5 | 0.00 | 0.00 | 0.00 | 100 | 942.7 |
| 20260905054604 | 15 | 238 | 11.3 | 16.1 | 0.00 | 0.00 | 0.00 | 100 | 942.7 |
| 20260905054201 | 15 | 233 | 14.5 | 16.1 | 0.00 | 0.00 | 0.00 | 100 | 942.5 |
| 20260905053801 | 15 | 238 | 11.3 | 12.9 | 0.00 | 0.00 | 0.00 | 100 | 942.4 |
| 20260905053401 | 15 | 233 | 16.1 | 17.7 | 0.00 | 0.00 | 0.00 | 100 | 942.4 |
| 20260905053001 | 15 | 232 | 16.1 | 19.3 | 0.00 | 0.00 | 0.00 | 100 | 942.2 |
| 20260905052600 | 15 | 236 | 16.1 | 19.3 | 0.00 | 0.00 | 0.00 | 100 | 942.0 |
| 20260905052157 | 15 | 233 | 12.9 | 17.7 | 0.00 | 0.00 | 0.00 | 100 | 942.1 |
| 20260905051757 | 15 | 238 | 12.9 | 14.5 | 0.00 | 0.00 | 0.00 | 100 | 942.3 |
| 20260905051358 | 15 | 241 | 9.7 | 11.3 | 0.00 | 0.00 | 0.00 | 100 | 942.3 |
| 20260905050958 | 15 | 251 | 8.0 | 9.7 | 0.00 | 0.00 | 0.00 | 100 | 942.2 |
| 20260905050549 | 15 | 244 | 11.3 | 12.9 | 0.00 | 0.00 | 0.00 | 100 | 942.2 |
| 20260905050146 | 15 | 241 | 12.9 | 16.1 | 0.00 | 0.00 | 0.00 | 100 | 942.2 |
| 20260905045746 | 15 | 243 | 12.9 | 14.5 | 0.00 | 0.00 | 0.00 | 100 | 942.2 |
| 20260905044946 | 15 | 245 | 12.9 | 16.1 | 0.00 | 0.00 | 0.00 | 100 | 942.1 |
| 20260905044546 | 15 | 243 | 12.9 | 16.1 | 0.00 | 0.00 | 0.00 | 100 | 942.2 |
| 20260905044140 | 15 | 242 | 14.5 | 17.7 | 0.00 | 0.00 | 0.00 | 100 | 942.2 |
| 20260905043740 | 15 | 247 | 16.1 | 22.5 | 0.00 | 0.00 | 0.00 | 100 | 942.1 |
| 20260905043340 | 15 | 267 | 14.5 | 24.1 | 0.00 | 0.00 | 0.00 | 100 | 942.1 |
| 20260905042940 | 15 | 279 | 9.7 | 19.3 | 0.00 | 0.00 | 0.00 | 100 | 942.3 |
| 20260905042540 | 15 | 280 | 12.9 | 20.9 | 0.00 | 0.00 | 0.00 | 100 | 942.3 |
| 20260905042137 | 15 | 275 | 16.1 | 20.9 | 0.00 | 0.00 | 0.00 | 100 | 942.4 |
| 20260905041737 | 15 | 273 | 14.5 | 17.7 | 0.00 | 0.00 | 0.00 | 100 | 942.4 |
| 20260905041337 | 16 | 278 | 12.9 | 17.7 | 0.00 | 0.00 | 0.00 | 100 | 942.4 |
| 20260905040937 | 16 | 273 | 16.1 | 25.7 | 0.00 | 0.00 | 0.00 | 100 | 942.6 |
| 20260905040537 | 16 | 278 | 14.5 | 20.9 | 0.00 | 0.00 | 0.00 | 100 | 942.8 |
| 20260905040134 | 16 | 282 | 9.7 | 16.1 | 0.00 | 0.00 | 0.00 | 100 | 942.6 |
| 20260905035734 | 16 | 306 | 6.4 | 14.5 | 0.00 | 0.00 | 0.00 | 100 | 942.7 |
| 20260905035334 | 16 | 288 | 6.4 | 14.5 | 0.00 | 0.00 | 0.00 | 100 | 942.9 |
| 20260905034934 | 16 | 292 | 16.1 | 30.6 | 0.00 | 0.00 | 0.00 | 100 | 942.9 |
| 20260905034534 | 16 | 294 | 9.7 | 19.3 | 0.00 | 0.00 | 0.00 | 100 | 942.9 |
| 20260905034131 | 16 | 290 | 9.7 | 16.1 | 0.00 | 0.00 | 0.00 | 100 | 942.8 |
| 20260905033731 | 16 | 285 | 14.5 | 25.7 | 0.00 | 0.00 | 0.00 | 100 | 942.7 |
| 20260905033331 | 16 | 288 | 12.9 | 22.5 | 0.00 | 0.00 | 0.00 | 100 | 942.6 |
| 20260905032931 | 17 | 288 | 12.9 | 24.1 | 0.00 | 0.00 | 0.00 | 100 | 942.5 |
| 20260905032532 | 17 | 284 | 14.5 | 24.1 | 0.00 | 0.00 | 0.00 | 100 | 942.5 |
| 20260905032129 | 17 | 292 | 9.7 | 16.1 | 0.00 | 0.00 | 0.00 | 100 | 942.3 |
| 20260905031729 | 17 | 294 | 11.3 | 20.9 | 0.00 | 0.00 | 0.00 | 100 | 942.4 |
| 20260905031329 | 17 | 285 | 16.1 | 24.1 | 0.00 | 0.00 | 0.00 | 100 | 942.5 |
| 20260905030929 | 17 | 284 | 19.3 | 38.6 | 0.00 | 0.00 | 0.00 | 100 | 942.5 |
| 20260905030529 | 17 | 288 | 17.7 | 32.2 | 0.00 | 0.00 | 0.00 | 100 | 942.5 |
| 20260905030126 | 17 | 282 | 14.5 | 27.4 | 0.00 | 0.00 | 0.00 | 100 | 942.4 |
| 20260905025726 | 17 | 292 | 11.3 | 19.3 | 0.00 | 0.00 | 0.00 | 100 | 942.1 |
| 20260905025326 | 17 | 293 | 11.3 | 19.3 | 0.00 | 0.00 | 0.00 | 100 | 942.0 |
| 20260905024926 | 17 | 304 | 8.0 | 20.9 | 0.00 | 0.00 | 0.00 | 100 | 941.8 |
| 20260905024525 | 17 | 306 | 9.7 | 16.1 | 0.00 | 0.00 | 0.00 | 100 | 941.7 |
| 20260905024122 | 17 | 310 | 8.0 | 12.9 | 0.00 | 0.00 | 0.00 | 100 | 941.6 |
| 20260905023719 | 18 | 300 | 9.7 | 22.5 | 0.00 | 0.00 | 0.00 | 100 | 941.5 |
| 20260905023319 | 18 | 300 | 12.9 | 24.1 | 0.00 | 0.00 | 0.00 | 100 | 941.5 |
| 20260905022908 | 18 | 298 | 12.9 | 19.3 | 0.00 | 0.00 | 0.00 | 100 | 941.5 |
| 20260905022508 | 18 | 293 | 16.1 | 22.5 | 0.00 | 0.00 | 0.00 | 100 | 941.4 |
| 20260905022105 | 18 | 291 | 11.3 | 22.5 | 0.00 | 0.00 | 0.00 | 100 | 941.2 |
| 20260905021705 | 18 | 302 | 9.7 | 20.9 | 0.00 | 0.00 | 0.00 | 100 | 941.1 |
| 20260905021305 | 18 | 296 | 9.7 | 17.7 | 0.00 | 0.00 | 0.00 | 100 | 941.0 |
| 20260905020905 | 18 | 286 | 16.1 | 22.5 | 0.00 | 0.00 | 0.00 | 100 | 940.9 |
| 20260905020505 | 18 | 287 | 17.7 | 27.4 | 0.00 | 0.00 | 0.00 | 100 | 940.8 |
| 20260905015703 | 19 | 275 | 29.0 | 40.2 | 0.00 | 0.00 | 0.00 | 100 | 940.4 |
| 20260905015306 | 19 | 276 | 27.4 | 37.0 | 0.00 | 0.00 | 0.00 | 100 | 940.2 |
| 20260905014903 | 19 | 263 | 20.9 | 32.2 | 0.00 | 0.00 | 0.00 | 100 | 940.1 |
| 20260905014503 | 19 | 279 | 16.1 | 19.3 | 0.00 | 0.00 | 0.00 | 100 | 940.2 |
| 20260905014100 | 19 | 267 | 19.3 | 29.0 | 0.00 | 0.00 | 0.00 | 100 | 940.0 |
| 20260905013700 | 19 | 244 | 29.0 | 33.8 | 0.00 | 0.00 | 0.00 | 100 | 939.7 |
| 20260905013300 | 18 | 247 | 25.7 | 33.8 | 0.00 | 0.00 | 0.00 | 100 | 939.6 |
| 20260905012900 | 18 | 244 | 27.4 | 37.0 | 0.00 | 0.00 | 0.00 | 100 | 939.5 |
| 20260905012500 | 18 | 238 | 20.9 | 27.4 | 0.00 | 0.00 | 0.00 | 100 | 939.6 |
| 20260905012057 | 18 | 238 | 20.9 | 29.0 | 0.00 | 0.00 | 0.00 | 100 | 939.5 |
| 20260905011657 | 18 | 238 | 19.3 | 27.4 | 0.00 | 0.00 | 0.00 | 100 | 939.5 |
| 20260905011257 | 18 | 237 | 22.5 | 30.6 | 0.00 | 0.00 | 0.00 | 100 | 939.6 |
| 20260905010457 | 18 | 237 | 24.1 | 27.4 | 0.00 | 0.00 | 0.00 | 100 | 939.6 |